Aviation Digital Data Service (ADDS)

Output produced by METARs form (0610 UTC 30 August 2014)
found at http://aviationweather.gov/adds/metars/
 
KLAX 300529Z 3006/3112 VRB03KT P6SM SKC 
     FM301000 VRB03KT 4SM BR OVC007 
     FM301800 26007KT 6SM HZ SCT010 
     FM302100 27012KT P6SM SKC 
     FM310300 25007KT P6SM SCT008 
     FM310700 VRB03KT 5SM BR OVC007